Time;durP1;ratioP1;P1;durP2;ratioP2;P2;SDS_P1;SDS_P2;PMS_P1;PMS_P2;Temp;Humidity;BMP_temperature;BMP_pressure;BME280_temperature;BME280_humidity;BME280_pressure;Samples;Min_cycle;Max_cycle;Signal;HPM_P1;HPM_P2
2022/02/14 00:00:55;;;;;;;13.70;7.50;;;;;;;0.07;64.18;100277.21;130448;1268;107029;-77
2022/02/14 00:04:01;;;;;;;15.00;7.50;;;;;;;0.05;64.29;100271.88;130514;1268;108977;-77
2022/02/14 00:07:07;;;;;;;12.70;6.80;;;;;;;0.04;64.23;100263.02;130407;1268;108744;-76
2022/02/14 00:10:12;;;;;;;11.90;6.70;;;;;;;0.03;64.30;100258.17;130397;1267;107451;-77
2022/02/14 00:13:18;;;;;;;14.20;7.00;;;;;;;0.02;64.30;100253.73;130425;1268;107066;-77
2022/02/14 00:16:24;;;;;;;14.40;7.30;;;;;;;-0.02;64.40;100249.69;130417;1268;108739;-81
2022/02/14 00:19:31;;;;;;;13.70;7.00;;;;;;;-0.04;64.42;100254.73;130610;1268;108794;-83
2022/02/14 00:22:36;;;;;;;14.10;7.10;;;;;;;-0.07;64.37;100261.70;130521;1267;108899;-81
2022/02/14 00:25:42;;;;;;;12.50;6.60;;;;;;;-0.10;64.40;100263.83;130542;1268;107659;-80
2022/02/14 00:28:47;;;;;;;13.20;7.00;;;;;;;-0.14;64.41;100266.96;130530;1268;108901;-80
2022/02/14 00:31:53;;;;;;;12.70;7.00;;;;;;;-0.17;64.37;100260.20;130562;1267;108700;-79
2022/02/14 00:34:58;;;;;;;15.20;7.10;;;;;;;-0.21;64.50;100260.90;130397;1267;108767;-81
2022/02/14 00:38:04;;;;;;;16.80;8.30;;;;;;;-0.25;64.47;100255.55;130620;1267;108723;-81
2022/02/14 00:41:10;;;;;;;17.60;8.10;;;;;;;-0.29;64.47;100260.46;130598;1268;108673;-79
2022/02/14 00:44:15;;;;;;;17.90;8.40;;;;;;;-0.33;64.40;100252.50;130563;1267;108544;-79
2022/02/14 00:47:21;;;;;;;17.20;7.80;;;;;;;-0.37;64.37;100253.73;130523;1268;107775;-78
2022/02/14 00:50:27;;;;;;;16.70;8.10;;;;;;;-0.42;64.60;100252.76;130516;1268;108796;-77
2022/02/14 00:53:33;;;;;;;17.30;8.70;;;;;;;-0.44;64.38;100252.69;130536;1268;108955;-76
2022/02/14 00:56:39;;;;;;;20.00;9.20;;;;;;;-0.47;64.50;100251.81;130535;1268;108848;-78
2022/02/14 00:59:44;;;;;;;16.80;9.00;;;;;;;-0.50;64.50;100254.24;130566;1267;108823;-77
2022/02/14 01:02:50;;;;;;;16.90;8.60;;;;;;;-0.52;64.57;100255.05;130442;1268;108765;-77
2022/02/14 01:05:56;;;;;;;17.40;8.80;;;;;;;-0.55;64.41;100246.31;130442;1268;108935;-78
2022/02/14 01:09:02;;;;;;;19.10;9.40;;;;;;;-0.58;64.46;100245.26;130406;1266;108757;-77
2022/02/14 01:12:09;;;;;;;20.80;9.60;;;;;;;-0.59;64.55;100244.27;130424;1268;108949;-79
2022/02/14 01:15:14;;;;;;;17.10;9.00;;;;;;;-0.60;64.47;100242.92;130497;1268;108905;-77
2022/02/14 01:18:19;;;;;;;18.00;9.20;;;;;;;-0.61;64.57;100240.00;130542;1267;108747;-78
2022/02/14 01:21:25;;;;;;;20.40;9.70;;;;;;;-0.65;64.46;100244.23;130511;1268;108720;-78
2022/02/14 01:24:30;;;;;;;20.50;9.70;;;;;;;-0.66;64.51;100240.98;130370;1268;108922;-77
2022/02/14 01:27:36;;;;;;;21.60;9.70;;;;;;;-0.68;64.44;100238.11;130368;1268;108739;-77
2022/02/14 01:30:42;;;;;;;20.30;9.50;;;;;;;-0.70;64.57;100234.71;130505;1267;108804;-77
2022/02/14 01:33:47;;;;;;;20.30;9.80;;;;;;;-0.71;64.58;100228.85;130603;1268;108873;-77
2022/02/14 01:36:53;;;;;;;20.30;9.60;;;;;;;-0.72;64.55;100227.30;130449;1268;109566;-77
2022/02/14 01:39:58;;;;;;;20.70;10.30;;;;;;;-0.71;64.61;100226.23;130343;1268;108871;-81
2022/02/14 01:43:04;;;;;;;19.20;9.70;;;;;;;-0.72;64.48;100223.45;130363;1268;108718;-79
2022/02/14 01:46:09;;;;;;;20.40;9.70;;;;;;;-0.74;64.32;100218.33;130340;1268;108757;-79
2022/02/14 01:49:15;;;;;;;19.10;9.60;;;;;;;-0.75;64.44;100208.08;130518;1268;108677;-79
2022/02/14 01:52:22;;;;;;;21.50;10.10;;;;;;;-0.76;64.44;100205.36;130464;1268;107726;-79
2022/02/14 01:55:27;;;;;;;20.60;10.30;;;;;;;-0.77;64.49;100198.92;130314;1268;109019;-79
2022/02/14 01:58:32;;;;;;;19.90;10.20;;;;;;;-0.77;64.84;100202.45;130548;1268;107703;-75
2022/02/14 02:01:38;;;;;;;19.60;9.60;;;;;;;-0.77;64.70;100201.39;130464;1266;109079;-77
2022/02/14 02:04:46;;;;;;;20.00;10.40;;;;;;;-0.79;64.61;100207.05;130406;1268;107472;-79
2022/02/14 02:07:52;;;;;;;20.00;9.90;;;;;;;-0.80;64.69;100199.23;130425;1268;108688;-80
2022/02/14 02:12:22;;;;;;;20.40;10.30;;;;;;;-0.81;64.49;100193.20;130593;1268;108866;-78
2022/02/14 02:14:25;;;;;;;19.20;10.00;;;;;;;-0.82;64.96;100192.73;130545;1268;107848;-77
2022/02/14 02:17:34;;;;;;;22.30;10.20;;;;;;;-0.83;64.79;100195.23;130613;1268;106788;-78
2022/02/14 02:20:39;;;;;;;22.20;11.00;;;;;;;-0.83;64.98;100191.88;130527;1268;108584;-80
2022/02/14 02:23:48;;;;;;;21.20;10.90;;;;;;;-0.84;64.82;100187.58;130592;1268;108749;-84
2022/02/14 02:27:02;;;;;;;20.50;10.70;;;;;;;-0.85;65.03;100187.13;130495;1268;109082;-85
2022/02/14 02:30:11;;;;;;;24.50;11.60;;;;;;;-0.85;64.95;100191.33;130613;1268;107449;-82
2022/02/14 02:33:16;;;;;;;22.20;11.40;;;;;;;-0.87;64.89;100189.30;130452;1268;108636;-84
2022/02/14 02:36:21;;;;;;;21.40;11.40;;;;;;;-0.89;65.04;100189.10;130548;1267;108961;-84
2022/02/14 02:39:27;;;;;;;25.90;11.80;;;;;;;-0.90;65.00;100185.84;130553;1268;108821;-82
2022/02/14 02:42:32;;;;;;;26.20;12.30;;;;;;;-0.91;64.99;100183.95;130527;1266;107024;-83
2022/02/14 02:45:38;;;;;;;23.50;12.10;;;;;;;-0.91;65.07;100182.93;130573;1268;109558;-84
2022/02/14 02:48:43;;;;;;;22.90;11.50;;;;;;;-0.93;64.98;100180.77;130463;1268;107648;-78
2022/02/14 02:51:51;;;;;;;31.10;13.40;;;;;;;-0.95;65.23;100178.90;130563;1268;108833;-76
2022/02/14 02:54:56;;;;;;;26.30;12.10;;;;;;;-0.94;65.06;100170.84;130572;1268;108898;-77
2022/02/14 02:58:02;;;;;;;24.80;11.40;;;;;;;-0.91;65.11;100170.51;130515;1267;108854;-77
2022/02/14 03:01:07;;;;;;;26.00;11.90;;;;;;;-0.82;65.22;100171.22;130547;1268;107598;-79
2022/02/14 03:04:14;;;;;;;24.50;11.20;;;;;;;-0.69;65.13;100168.48;130392;1268;108690;-78
2022/02/14 03:07:20;;;;;;;25.80;12.50;;;;;;;-0.59;65.04;100161.28;130539;1268;107685;-79
2022/02/14 03:10:25;;;;;;;24.00;11.70;;;;;;;-0.51;65.07;100159.27;130503;1268;107921;-81
2022/02/14 03:13:31;;;;;;;25.70;12.00;;;;;;;-0.47;64.92;100156.58;130466;1268;106810;-82
2022/02/14 03:16:37;;;;;;;23.00;12.10;;;;;;;-0.46;65.06;100154.27;130666;1268;106340;-80
2022/02/14 03:19:43;;;;;;;24.10;12.50;;;;;;;-0.47;64.97;100156.77;130563;1267;107663;-81
2022/02/14 03:22:48;;;;;;;23.80;11.70;;;;;;;-0.48;64.92;100155.77;130586;1267;107730;-81
2022/02/14 03:25:54;;;;;;;24.00;12.00;;;;;;;-0.50;65.01;100151.33;130634;1268;108705;-84
2022/02/14 03:29:00;;;;;;;23.40;11.70;;;;;;;-0.52;65.11;100150.40;130580;1268;108939;-81
2022/02/14 03:32:06;;;;;;;23.00;12.70;;;;;;;-0.55;65.10;100142.38;130471;1268;108476;-80
2022/02/14 03:35:12;;;;;;;25.20;12.40;;;;;;;-0.57;65.17;100137.42;130549;1267;108646;-79
2022/02/14 03:38:17;;;;;;;25.70;12.60;;;;;;;-0.59;65.29;100141.55;130584;1268;107714;-80
2022/02/14 03:41:23;;;;;;;26.80;13.00;;;;;;;-0.62;65.17;100136.26;130357;1268;108900;-79
2022/02/14 03:44:28;;;;;;;25.20;13.20;;;;;;;-0.63;65.29;100138.07;130586;1267;106832;-80
2022/02/14 03:47:34;;;;;;;27.10;13.30;;;;;;;-0.65;65.34;100134.01;130646;1268;108729;-80
2022/02/14 03:50:40;;;;;;;23.50;12.20;;;;;;;-0.67;65.42;100134.65;130397;1266;108686;-80
2022/02/14 03:53:45;;;;;;;25.90;12.80;;;;;;;-0.68;65.61;100136.10;130447;1268;108922;-78
2022/02/14 03:56:51;;;;;;;24.90;13.00;;;;;;;-0.69;65.70;100132.48;130586;1266;108816;-80
2022/02/14 03:59:56;;;;;;;24.70;12.70;;;;;;;-0.69;65.82;100130.02;130368;1267;108713;-78
2022/02/14 04:03:02;;;;;;;31.50;13.50;;;;;;;-0.69;65.67;100131.27;130406;1268;108850;-83
2022/02/14 04:06:07;;;;;;;25.10;13.60;;;;;;;-0.69;65.64;100126.92;130553;1268;108786;-77
2022/02/14 04:09:13;;;;;;;28.30;14.00;;;;;;;-0.70;65.79;100126.94;130564;1267;108560;-83
2022/02/14 04:12:18;;;;;;;28.30;13.70;;;;;;;-0.71;65.86;100128.07;130727;1267;107650;-81
2022/02/14 04:15:24;;;;;;;30.40;14.40;;;;;;;-0.73;65.76;100128.13;130633;1268;107709;-81
2022/02/14 04:18:29;;;;;;;27.90;13.90;;;;;;;-0.73;65.76;100125.02;130843;1268;108745;-81
2022/02/14 04:21:35;;;;;;;30.20;14.70;;;;;;;-0.72;65.72;100125.31;130695;1268;108968;-83
2022/02/14 04:24:41;;;;;;;28.40;13.10;;;;;;;-0.65;65.75;100121.63;130604;1268;107379;-82
2022/02/14 04:27:46;;;;;;;30.40;13.60;;;;;;;-0.57;65.91;100119.40;130512;1267;108722;-81
2022/02/14 04:30:52;;;;;;;26.60;13.30;;;;;;;-0.48;65.47;100115.02;130820;1268;108756;-81
2022/02/14 04:33:57;;;;;;;23.60;12.50;;;;;;;-0.41;65.41;100118.16;130785;1268;108593;-81
2022/02/14 04:37:03;;;;;;;24.30;12.50;;;;;;;-0.40;65.43;100116.86;130514;1268;108727;-80
2022/02/14 04:40:10;;;;;;;29.20;13.60;;;;;;;-0.41;65.13;100113.77;130573;1267;108679;-82
2022/02/14 04:43:16;;;;;;;23.00;11.80;;;;;;;-0.44;65.18;100113.40;130871;1268;109218;-81
2022/02/14 04:46:21;;;;;;;26.10;13.00;;;;;;;-0.47;65.20;100117.63;130689;1267;107757;-80
2022/02/14 04:49:26;;;;;;;26.90;14.10;;;;;;;-0.51;65.17;100113.11;130783;1268;108827;-81
2022/02/14 04:52:32;;;;;;;29.70;14.60;;;;;;;-0.54;65.11;100107.88;130304;1268;107662;-78
2022/02/14 04:55:37;;;;;;;23.60;12.20;;;;;;;-0.58;65.09;100111.44;130406;1267;108698;-79
2022/02/14 04:58:43;;;;;;;29.60;14.70;;;;;;;-0.63;65.08;100113.99;130413;1268;108652;-78
2022/02/14 05:01:48;;;;;;;26.50;12.60;;;;;;;-0.68;64.92;100114.06;130398;1268;108442;-80
2022/02/14 05:04:54;;;;;;;24.30;12.70;;;;;;;-0.71;64.96;100116.35;130328;1268;107714;-82
2022/02/14 05:07:59;;;;;;;24.70;12.20;;;;;;;-0.75;65.05;100112.52;130315;1268;107728;-75
2022/02/14 05:11:04;;;;;;;26.00;12.60;;;;;;;-0.79;65.07;100116.73;130302;1268;108734;-76
2022/02/14 05:14:10;;;;;;;25.50;13.20;;;;;;;-0.83;64.95;100119.25;130304;1268;108663;-77
2022/02/14 05:17:16;;;;;;;35.90;20.00;;;;;;;-0.87;65.21;100122.77;130273;1268;108931;-76
2022/02/14 05:20:21;;;;;;;32.60;16.90;;;;;;;-0.90;65.17;100119.81;130290;1268;108816;-75
2022/02/14 05:23:27;;;;;;;30.90;15.90;;;;;;;-0.91;65.30;100120.60;130230;1268;107297;-76
2022/02/14 05:26:32;;;;;;;38.10;19.60;;;;;;;-0.92;65.28;100117.14;130261;1268;108818;-76
2022/02/14 05:29:38;;;;;;;33.40;16.80;;;;;;;-0.92;64.79;100125.70;130235;1268;108752;-75
2022/02/14 05:32:43;;;;;;;30.20;15.60;;;;;;;-0.94;65.10;100122.83;130260;1268;109516;-75
2022/02/14 05:35:48;;;;;;;40.00;20.80;;;;;;;-0.96;65.22;100126.63;130258;1268;108917;-77
2022/02/14 05:38:54;;;;;;;33.60;19.40;;;;;;;-0.98;65.24;100128.61;130267;1268;108871;-77
2022/02/14 05:41:59;;;;;;;154.40;56.20;;;;;;;-0.96;65.21;100130.81;130243;1268;108783;-76
2022/02/14 05:45:06;;;;;;;50.30;21.60;;;;;;;-0.98;65.31;100132.45;130302;1267;108954;-75
2022/02/14 05:48:11;;;;;;;32.80;15.80;;;;;;;-0.99;65.40;100126.56;130292;1268;109682;-76
2022/02/14 05:51:17;;;;;;;32.40;15.70;;;;;;;-0.98;64.99;100123.92;130453;1268;107399;-76
2022/02/14 05:54:23;;;;;;;31.60;13.90;;;;;;;-0.99;65.17;100122.04;130517;1267;108903;-76
2022/02/14 05:57:28;;;;;;;30.00;15.00;;;;;;;-1.00;65.14;100126.29;130385;1268;108887;-76
2022/02/14 06:00:34;;;;;;;27.60;13.70;;;;;;;-0.99;65.05;100124.11;130380;1268;108640;-78
2022/02/14 06:03:40;;;;;;;28.20;14.00;;;;;;;-0.97;64.97;100127.39;130399;1268;106720;-77
2022/02/14 06:06:45;;;;;;;30.70;15.60;;;;;;;-0.97;65.00;100127.01;130432;1268;107492;-79
2022/02/14 06:09:51;;;;;;;28.60;14.80;;;;;;;-0.96;65.19;100122.39;130328;1268;107814;-78
2022/02/14 06:12:56;;;;;;;33.90;16.80;;;;;;;-0.94;65.10;100124.95;130349;1268;106688;-78
2022/02/14 06:16:02;;;;;;;29.50;15.20;;;;;;;-0.95;64.89;100121.11;130288;1268;106838;-78
2022/02/14 06:19:07;;;;;;;29.60;14.60;;;;;;;-0.92;64.97;100114.71;130264;1268;108809;-78
2022/02/14 06:22:13;;;;;;;30.90;14.30;;;;;;;-0.91;65.03;100112.67;130278;1268;109195;-78
2022/02/14 06:25:18;;;;;;;31.00;16.40;;;;;;;-0.89;64.92;100115.40;130249;1267;108642;-79
2022/02/14 06:28:24;;;;;;;28.10;15.50;;;;;;;-0.89;64.88;100113.80;130345;1268;108728;-77
2022/02/14 06:31:29;;;;;;;32.70;14.30;;;;;;;-0.85;65.21;100109.26;130341;1268;108863;-78
2022/02/14 06:34:35;;;;;;;30.50;14.70;;;;;;;-0.82;65.08;100113.80;130309;1268;107295;-75
2022/02/14 06:37:43;;;;;;;29.70;15.30;;;;;;;-0.79;65.01;100116.42;130254;1268;107708;-76
2022/02/14 06:40:49;;;;;;;33.20;16.60;;;;;;;-0.75;64.94;100112.87;130262;1268;108664;-75
2022/02/14 06:43:55;;;;;;;28.80;14.30;;;;;;;-0.69;65.15;100110.50;130281;1268;108847;-75
2022/02/14 06:47:02;;;;;;;29.00;14.90;;;;;;;-0.63;64.95;100104.36;130257;1268;107498;-75
2022/02/14 06:50:09;;;;;;;32.80;16.20;;;;;;;-0.57;65.18;100102.97;130219;1268;107457;-76
2022/02/14 06:53:15;;;;;;;27.30;13.80;;;;;;;-0.50;65.03;100099.30;130333;1268;109699;-76
2022/02/14 06:56:20;;;;;;;29.30;15.40;;;;;;;-0.45;65.06;100100.35;130309;1268;108706;-75
2022/02/14 06:59:26;;;;;;;28.20;14.20;;;;;;;-0.38;65.02;100095.81;130347;1264;107707;-76
2022/02/14 07:02:31;;;;;;;28.10;14.20;;;;;;;-0.31;64.89;100094.18;130299;1268;108829;-77
2022/02/14 07:05:38;;;;;;;25.20;14.00;;;;;;;-0.24;64.77;100093.95;130285;1268;108662;-75
2022/02/14 07:08:44;;;;;;;31.50;15.30;;;;;;;-0.17;64.80;100098.27;130344;1268;107454;-76
2022/02/14 07:11:49;;;;;;;33.10;16.50;;;;;;;-0.10;64.81;100099.06;130330;1268;108904;-76
2022/02/14 07:14:55;;;;;;;28.20;15.60;;;;;;;-0.04;65.01;100098.02;130284;1268;107627;-75
2022/02/14 07:18:03;;;;;;;28.00;14.40;;;;;;;0.04;64.82;100103.02;130293;1268;108818;-76
2022/02/14 07:21:08;;;;;;;28.90;13.80;;;;;;;0.11;64.86;100102.92;130206;1268;108707;-74
2022/02/14 07:24:14;;;;;;;28.60;14.60;;;;;;;0.18;64.72;100103.20;130239;1268;108694;-76
2022/02/14 07:27:19;;;;;;;26.40;15.00;;;;;;;0.26;64.52;100097.88;130396;1267;108729;-76
2022/02/14 07:30:26;;;;;;;28.10;15.10;;;;;;;0.31;64.60;100097.53;130498;1268;108882;-74
2022/02/14 07:33:33;;;;;;;30.20;15.20;;;;;;;0.38;64.39;100098.20;130507;1268;108630;-75
2022/02/14 07:36:39;;;;;;;28.50;15.60;;;;;;;0.44;64.52;100101.67;130400;1267;106002;-76
2022/02/14 07:39:44;;;;;;;25.20;14.30;;;;;;;0.51;64.55;100100.41;130415;1267;108661;-76
2022/02/14 07:42:49;;;;;;;30.10;15.50;;;;;;;0.58;64.16;100099.30;130503;1266;107732;-75
2022/02/14 07:45:55;;;;;;;30.20;15.60;;;;;;;0.65;64.38;100100.58;130425;1267;108710;-76
2022/02/14 07:49:00;;;;;;;29.80;15.50;;;;;;;0.73;64.28;100099.39;130508;1267;108882;-76
2022/02/14 07:52:07;;;;;;;32.70;17.10;;;;;;;0.81;64.35;100091.95;130445;1268;108790;-76
2022/02/14 07:55:13;;;;;;;33.40;16.90;;;;;;;0.88;64.51;100090.42;130361;1265;108761;-76
2022/02/14 07:58:18;;;;;;;28.40;15.60;;;;;;;0.95;64.44;100090.17;130395;1267;108754;-76
2022/02/14 08:01:23;;;;;;;29.60;16.10;;;;;;;1.02;64.50;100088.87;130315;1267;107711;-74
2022/02/14 08:04:29;;;;;;;30.70;16.60;;;;;;;1.09;64.45;100088.41;130489;1267;108722;-76
2022/02/14 08:07:34;;;;;;;40.50;21.20;;;;;;;1.16;64.48;100088.00;130365;1267;108749;-76
2022/02/14 08:10:40;;;;;;;36.10;19.20;;;;;;;1.24;64.10;100084.87;130328;1266;109285;-76
2022/02/14 08:13:45;;;;;;;31.10;16.30;;;;;;;1.31;64.26;100086.88;130363;1267;107795;-76
2022/02/14 08:16:51;;;;;;;33.20;18.10;;;;;;;1.39;64.05;100081.98;130395;1268;108777;-75
2022/02/14 08:19:56;;;;;;;43.30;25.20;;;;;;;1.46;64.15;100080.45;130366;1268;107553;-76
2022/02/14 08:23:03;;;;;;;33.90;19.10;;;;;;;1.54;64.14;100080.10;130379;1267;108968;-76
2022/02/14 08:26:09;;;;;;;32.00;17.30;;;;;;;1.62;64.09;100082.79;130524;1267;107789;-76
2022/02/14 08:29:14;;;;;;;36.60;18.50;;;;;;;1.69;64.23;100079.83;130399;1266;108765;-76
2022/02/14 08:32:20;;;;;;;33.90;17.50;;;;;;;1.78;64.26;100076.46;130384;1268;107704;-76
2022/02/14 08:35:26;;;;;;;30.50;17.10;;;;;;;1.86;64.24;100074.14;130422;1266;108727;-76
2022/02/14 08:38:32;;;;;;;35.20;18.60;;;;;;;1.94;64.29;100077.13;130438;1266;108052;-76
2022/02/14 08:41:37;;;;;;;32.90;17.70;;;;;;;2.03;64.23;100074.25;130489;1267;108716;-75
2022/02/14 08:44:43;;;;;;;30.10;17.10;;;;;;;2.12;64.33;100069.98;130429;1266;108764;-75
2022/02/14 08:47:50;;;;;;;30.80;17.20;;;;;;;2.20;64.35;100065.23;130429;1267;108794;-75
2022/02/14 08:50:56;;;;;;;29.50;16.30;;;;;;;2.29;64.49;100065.80;130354;1267;108966;-76
2022/02/14 08:54:01;;;;;;;31.80;18.00;;;;;;;2.39;64.35;100061.50;130353;1268;108702;-76
2022/02/14 08:57:07;;;;;;;30.40;17.60;;;;;;;2.49;64.47;100062.40;130456;1268;108236;-76
2022/02/14 09:00:15;;;;;;;31.00;17.40;;;;;;;2.58;64.46;100058.59;130364;1268;108646;-75
2022/02/14 09:03:20;;;;;;;32.00;18.00;;;;;;;2.67;64.52;100053.27;130391;1268;108750;-76
2022/02/14 09:06:27;;;;;;;29.80;17.30;;;;;;;2.76;64.49;100057.52;130404;1267;108849;-75
2022/02/14 09:09:33;;;;;;;30.00;16.70;;;;;;;2.86;64.56;100054.55;130443;1266;107894;-76
2022/02/14 09:12:38;;;;;;;33.60;18.60;;;;;;;2.95;64.47;100047.74;130413;1267;108946;-75
2022/02/14 09:15:44;;;;;;;30.70;18.20;;;;;;;3.03;64.42;100044.89;130386;1268;108927;-76
2022/02/14 09:18:49;;;;;;;32.20;17.80;;;;;;;3.12;64.28;100049.15;130374;1268;108193;-76
2022/02/14 09:21:55;;;;;;;30.90;17.90;;;;;;;3.21;64.33;100042.92;130346;1267;107722;-77
2022/02/14 09:25:00;;;;;;;29.50;17.80;;;;;;;3.28;64.37;100044.16;130372;1268;108631;-75
2022/02/14 09:28:06;;;;;;;31.10;17.40;;;;;;;3.36;64.10;100039.02;130353;1268;108845;-76
2022/02/14 09:31:11;;;;;;;36.00;18.30;;;;;;;3.43;64.16;100040.62;130373;1267;108709;-76
2022/02/14 09:34:19;;;;;;;29.80;18.10;;;;;;;3.51;64.03;100038.76;130449;1267;107662;-74
2022/02/14 09:37:25;;;;;;;25.90;16.10;;;;;;;3.59;64.15;100035.05;130455;1267;108672;-76
2022/02/14 09:40:31;;;;;;;26.40;16.00;;;;;;;3.66;63.98;100027.64;130349;1268;108740;-76
2022/02/14 09:43:37;;;;;;;28.10;16.40;;;;;;;3.75;64.26;100028.04;130419;1268;108791;-75
2022/02/14 09:46:43;;;;;;;26.10;15.70;;;;;;;3.84;64.18;100029.14;130399;1265;107015;-76
2022/02/14 09:49:49;;;;;;;29.40;16.20;;;;;;;3.91;64.17;100026.84;130458;1268;108666;-75
2022/02/14 09:52:55;;;;;;;30.30;18.00;;;;;;;3.98;63.87;100021.20;130463;1266;108619;-76
2022/02/14 09:56:01;;;;;;;28.30;16.20;;;;;;;4.04;63.92;100020.72;130379;1268;108693;-74
2022/02/14 09:59:07;;;;;;;30.00;17.10;;;;;;;4.11;64.03;100015.13;130382;1267;108817;-74
2022/02/14 10:02:25;;;;;;;29.50;18.10;;;;;;;4.18;64.01;100012.48;130377;1268;108890;-76
2022/02/14 10:05:31;;;;;;;28.00;17.50;;;;;;;4.25;64.07;100010.84;130412;1267;109007;-76
2022/02/14 10:08:37;;;;;;;27.70;16.60;;;;;;;4.32;63.72;100006.59;130391;1268;108906;-75
2022/02/14 10:11:59;;;;;;;30.70;17.60;;;;;;;4.40;63.69;100006.89;130485;1266;107727;-74
2022/02/14 10:15:05;;;;;;;26.40;15.90;;;;;;;4.47;63.84;100007.41;130416;1267;108516;-76
2022/02/14 10:18:11;;;;;;;36.90;22.60;;;;;;;4.53;63.92;100005.85;130447;1268;106291;-75
2022/02/14 10:21:21;;;;;;;35.70;19.70;;;;;;;4.60;63.97;100004.08;130433;1268;108987;-76
2022/02/14 10:24:28;;;;;;;31.10;16.70;;;;;;;4.66;63.93;100002.70;130369;1267;108684;-75
2022/02/14 10:27:35;;;;;;;30.20;19.10;;;;;;;4.72;63.81;99995.95;130261;1268;184185;-76
2022/02/14 10:30:56;;;;;;;27.30;17.20;;;;;;;4.79;64.00;99994.80;130315;1266;108841;-75
2022/02/14 10:34:02;;;;;;;;;;;;;;;4.87;63.78;99989.98;130411;1267;108712;-77
2022/02/14 10:37:09;;;;;;;28.00;16.60;;;;;;;4.93;63.65;99991.92;130368;1267;109082;-77
2022/02/14 10:40:30;;;;;;;27.40;17.20;;;;;;;4.98;63.53;99987.65;130389;1268;108735;-76
2022/02/14 10:43:36;;;;;;;27.80;16.80;;;;;;;5.03;63.73;99984.65;130426;1268;108782;-76
2022/02/14 10:46:42;;;;;;;25.40;15.80;;;;;;;5.08;63.37;99984.34;130346;1268;107676;-75
2022/02/14 10:49:59;;;;;;;39.40;24.00;;;;;;;5.13;63.44;99979.45;130394;1268;108973;-77
2022/02/14 10:53:05;;;;;;;29.90;17.80;;;;;;;5.17;63.36;99981.55;130409;1267;108690;-76
2022/02/14 10:56:13;;;;;;;25.30;16.40;;;;;;;5.23;63.50;99977.17;130388;1267;107584;-77
2022/02/14 10:59:19;;;;;;;28.50;18.10;;;;;;;5.30;63.41;99979.45;130370;1267;108765;-76
2022/02/14 11:02:24;;;;;;;30.70;18.40;;;;;;;5.35;63.25;99978.11;130409;1268;109700;-75
2022/02/14 11:05:31;;;;;;;32.70;18.30;;;;;;;5.40;63.18;99975.62;130399;1268;108881;-77
2022/02/14 11:08:37;;;;;;;27.20;17.70;;;;;;;5.44;63.21;99970.00;130485;1268;107399;-75
2022/02/14 11:11:50;;;;;;;26.70;16.10;;;;;;;5.48;63.43;99965.91;130562;1266;108886;-76
2022/02/14 11:14:58;;;;;;;26.60;16.00;;;;;;;5.55;63.40;99959.61;130530;1267;108986;-76
2022/02/14 11:18:06;;;;;;;25.70;16.50;;;;;;;5.58;63.46;99960.19;130890;1268;108984;-76
2022/02/14 11:21:12;;;;;;;23.90;15.50;;;;;;;5.63;63.42;99960.65;131482;1268;108206;-76
2022/02/14 11:24:27;;;;;;;25.20;16.40;;;;;;;5.69;63.49;99957.65;131152;1268;108288;-76
2022/02/14 11:27:37;;;;;;;24.30;15.80;;;;;;;5.76;63.51;99954.82;130638;1268;108937;-76
2022/02/14 11:30:46;;;;;;;24.10;15.30;;;;;;;5.82;63.12;99951.63;130939;1266;108826;-77
2022/02/14 11:33:57;;;;;;;23.90;14.50;;;;;;;5.90;63.31;99953.10;130788;1268;108552;-76
2022/02/14 11:37:02;;;;;;;24.40;14.60;;;;;;;5.95;63.10;99950.91;130527;1267;107158;-77
2022/02/14 11:40:33;;;;;;;21.80;13.70;;;;;;;6.00;62.82;99948.05;131018;1268;107376;-76
2022/02/14 11:43:40;;;;;;;23.40;14.10;;;;;;;6.04;62.71;99941.20;130298;1268;108793;-74
2022/02/14 11:46:47;;;;;;;23.90;16.50;;;;;;;6.07;62.83;99939.30;130496;1268;108814;-76
2022/02/14 11:49:55;;;;;;;27.50;15.70;;;;;;;6.12;62.33;99942.26;130245;1268;108850;-75
2022/02/14 11:53:37;;;;;;;22.90;14.90;;;;;;;6.15;61.91;99934.20;130515;1268;109594;-76
2022/02/14 11:56:46;;;;;;;20.40;13.50;;;;;;;6.18;62.13;99934.46;130221;1268;108799;-75
2022/02/14 11:59:52;;;;;;;23.60;14.60;;;;;;;6.22;61.85;99936.26;130227;1267;107864;-76
2022/02/14 12:03:18;;;;;;;21.70;13.50;;;;;;;6.25;62.08;99926.27;130235;1268;108784;-75
2022/02/14 12:06:24;;;;;;;23.10;14.30;;;;;;;6.28;61.28;99921.11;130155;1268;109736;-75
2022/02/14 12:09:29;;;;;;;22.40;14.00;;;;;;;6.30;61.69;99914.56;130236;1268;108703;-75
2022/02/14 12:13:09;;;;;;;22.80;13.30;;;;;;;6.33;61.07;99915.68;130189;1268;108944;-75
2022/02/14 12:23:14;;;;;;;19.40;12.40;;;;;;;6.40;60.63;99892.86;130179;1268;108655;-74
2022/02/14 12:26:23;;;;;;;19.40;12.70;;;;;;;6.42;60.82;99883.45;130268;1268;107775;-76
2022/02/14 12:29:35;;;;;;;22.50;13.70;;;;;;;6.44;60.67;99885.06;130204;1268;107665;-76
2022/02/14 12:32:40;;;;;;;22.40;13.80;;;;;;;6.46;60.44;99881.71;130224;1268;108747;-77
2022/02/14 12:35:49;;;;;;;19.50;12.80;;;;;;;6.47;61.06;99869.73;131238;1267;108986;-75
2022/02/14 12:38:57;;;;;;;23.10;13.70;;;;;;;6.50;60.48;99868.12;131033;1268;108887;-76
2022/02/14 12:42:16;;;;;;;22.10;13.70;;;;;;;6.51;60.35;99863.45;131062;1268;108924;-75
2022/02/14 12:45:22;;;;;;;23.70;13.20;;;;;;;6.53;60.37;99869.08;130381;1268;107592;-76
2022/02/14 12:48:33;;;;;;;21.60;13.80;;;;;;;6.56;60.58;99861.23;131036;1268;107835;-74
2022/02/14 12:51:39;;;;;;;20.70;13.60;;;;;;;6.59;60.61;99857.23;130512;1268;108822;-76
2022/02/14 12:54:55;;;;;;;21.10;13.30;;;;;;;6.63;60.25;99856.00;130496;1268;108782;-76
2022/02/14 12:58:01;;;;;;;21.00;13.70;;;;;;;6.65;60.25;99851.20;130479;1268;108809;-76
2022/02/14 13:01:06;;;;;;;23.70;14.20;;;;;;;6.66;59.92;99849.17;130418;1268;108637;-74
2022/02/14 13:04:13;;;;;;;19.60;13.50;;;;;;;6.67;60.29;99848.86;130668;1268;108839;-77
2022/02/14 13:07:19;;;;;;;19.50;12.60;;;;;;;6.68;60.12;99845.63;130875;1268;108571;-76
2022/02/14 13:10:24;;;;;;;22.00;13.50;;;;;;;6.68;60.45;99841.89;131028;1267;108753;-76
2022/02/14 13:13:40;;;;;;;20.30;13.20;;;;;;;6.70;60.58;99837.38;130440;1268;107975;-76
2022/02/14 13:16:54;;;;;;;24.10;13.90;;;;;;;6.72;60.65;99834.88;130292;1268;108586;-76
2022/02/14 13:20:00;;;;;;;20.70;12.90;;;;;;;6.74;60.30;99830.82;130309;1270;108729;-76
2022/02/14 13:23:06;;;;;;;22.20;13.50;;;;;;;6.74;59.94;99833.08;130247;1267;109700;-76
2022/02/14 13:26:22;;;;;;;21.10;13.30;;;;;;;6.76;60.19;99833.83;130104;1268;108793;-76
2022/02/14 13:29:42;;;;;;;23.70;13.90;;;;;;;6.76;59.87;99831.13;130198;1268;108948;-75
2022/02/14 13:32:50;;;;;;;21.20;13.50;;;;;;;6.77;60.21;99826.77;130163;1268;109234;-76
2022/02/14 13:36:02;;;;;;;23.40;13.90;;;;;;;6.78;60.11;99829.91;130262;1268;107409;-76
2022/02/14 13:39:07;;;;;;;22.30;13.20;;;;;;;6.77;60.07;99825.36;130257;1269;108617;-73
2022/02/14 13:42:20;;;;;;;22.50;13.70;;;;;;;6.76;59.51;99823.92;130236;1268;108762;-76
2022/02/14 13:45:27;;;;;;;20.90;12.60;;;;;;;6.74;59.83;99819.12;130383;1268;108619;-76
2022/02/14 13:48:36;;;;;;;19.80;13.00;;;;;;;6.73;59.80;99818.53;130484;1268;108792;-76
2022/02/14 13:51:43;;;;;;;21.00;13.60;;;;;;;6.72;59.85;99812.19;131509;1268;108878;-75
2022/02/14 13:55:01;;;;;;;23.90;14.10;;;;;;;6.70;59.49;99807.78;130610;1268;108714;-75
2022/02/14 13:58:06;;;;;;;24.30;13.90;;;;;;;6.69;59.77;99807.88;131014;1268;108876;-75
2022/02/14 14:01:30;;;;;;;21.60;13.60;;;;;;;6.68;59.64;99802.31;130609;1268;109005;-74
2022/02/14 14:04:36;;;;;;;23.60;14.30;;;;;;;6.67;59.97;99798.48;130954;1268;108974;-75
2022/02/14 14:07:46;;;;;;;25.10;15.10;;;;;;;6.67;59.62;99795.89;130965;1268;108609;-76